createdAt,value
2018-07-30T00:01:21.857Z,9.57
2018-07-30T00:03:50.682Z,9.73
2018-07-30T00:06:19.500Z,10.50
2018-07-30T00:08:48.330Z,10.30
2018-07-30T00:11:17.133Z,10.17
2018-07-30T00:13:45.904Z,9.77
2018-07-30T00:16:14.671Z,10.60
2018-07-30T00:18:43.442Z,10.47
2018-07-30T00:21:12.229Z,10.00
2018-07-30T00:23:41.014Z,10.47
2018-07-30T00:26:09.802Z,11.50
2018-07-30T00:28:38.590Z,11.47
2018-07-30T00:31:07.377Z,11.10
2018-07-30T00:33:36.169Z,11.07
2018-07-30T00:36:04.956Z,10.73
2018-07-30T00:38:33.726Z,9.60
2018-07-30T00:41:02.477Z,10.73
2018-07-30T00:43:31.351Z,11.17
2018-07-30T00:46:00.123Z,10.73
2018-07-30T00:48:28.922Z,9.93
2018-07-30T00:50:57.699Z,9.63
2018-07-30T00:53:26.501Z,10.87
2018-07-30T00:55:55.366Z,9.40
2018-07-30T00:58:24.143Z,10.37
2018-07-30T01:00:52.947Z,10.50
2018-07-30T01:03:21.854Z,10.33
2018-07-30T01:05:50.634Z,10.97
2018-07-30T01:08:19.459Z,11.37
2018-07-30T01:10:48.263Z,10.17
2018-07-30T01:13:17.079Z,10.37
2018-07-30T01:15:45.895Z,10.30
2018-07-30T01:18:14.661Z,12.03
2018-07-30T01:20:43.461Z,11.40
2018-07-30T01:23:12.238Z,12.03
2018-07-30T01:25:41.179Z,12.43
2018-07-30T01:28:09.982Z,11.80
2018-07-30T01:30:38.744Z,12.13
2018-07-30T01:33:07.572Z,12.63
2018-07-30T01:35:36.369Z,12.20
2018-07-30T01:38:05.144Z,12.57
2018-07-30T01:40:33.946Z,11.37
2018-07-30T01:43:02.787Z,12.73
2018-07-30T01:45:31.617Z,12.17
2018-07-30T01:48:06.766Z,14.37
2018-07-30T01:50:35.621Z,12.67
2018-07-30T01:53:04.410Z,13.73
2018-07-30T01:55:33.294Z,13.23
2018-07-30T01:58:01.721Z,13.10
2018-07-30T02:00:30.510Z,12.57
2018-07-30T02:02:59.326Z,12.80
2018-07-30T02:05:28.175Z,12.10
2018-07-30T02:07:57.052Z,12.37
2018-07-30T02:10:25.894Z,12.00
2018-07-30T02:12:54.752Z,11.83
2018-07-30T02:15:23.533Z,11.33
2018-07-30T02:17:52.387Z,10.80
2018-07-30T02:20:21.256Z,10.20
2018-07-30T02:22:50.079Z,9.63
2018-07-30T02:25:18.951Z,9.63
2018-07-30T02:27:47.751Z,9.63
2018-07-30T02:30:16.492Z,8.87
2018-07-30T02:32:45.360Z,8.63
2018-07-30T02:35:14.138Z,7.67
2018-07-30T02:37:43.027Z,7.43
2018-07-30T02:40:11.902Z,7.53
2018-07-30T02:42:40.720Z,8.00
2018-07-30T02:45:09.531Z,7.43
2018-07-30T02:47:38.378Z,7.50
2018-07-30T02:50:07.573Z,7.33
2018-07-30T02:52:36.305Z,7.10
2018-07-30T02:55:05.154Z,8.33
2018-07-30T02:57:33.935Z,7.83
2018-07-30T03:00:02.717Z,7.63
2018-07-30T03:02:31.531Z,8.53
2018-07-30T03:05:00.363Z,8.13
2018-07-30T03:07:29.178Z,8.07
2018-07-30T03:09:58.010Z,8.20
2018-07-30T03:12:26.792Z,8.80
2018-07-30T03:14:55.610Z,7.70
2018-07-30T03:17:24.421Z,8.13
2018-07-30T03:19:53.245Z,8.23
2018-07-30T03:22:22.055Z,7.90
2018-07-30T03:24:50.859Z,8.03
2018-07-30T03:27:19.660Z,8.43
2018-07-30T03:29:48.478Z,7.97
2018-07-30T03:32:17.348Z,8.93
2018-07-30T03:34:46.099Z,8.20
2018-07-30T03:37:14.858Z,7.33
2018-07-30T03:39:43.611Z,8.13
2018-07-30T03:42:12.429Z,7.97
2018-07-30T03:44:41.214Z,7.63
2018-07-30T03:47:10.146Z,8.83
2018-07-30T03:49:38.970Z,7.47
2018-07-30T03:52:07.802Z,8.13
2018-07-30T03:54:36.625Z,8.10
2018-07-30T03:57:05.444Z,8.13
2018-07-30T03:59:34.239Z,8.60
2018-07-30T04:02:03.045Z,8.63
2018-07-30T04:04:31.882Z,8.33
2018-07-30T04:07:00.694Z,8.53
2018-07-30T04:09:29.471Z,9.13
2018-07-30T04:11:58.350Z,8.93
2018-07-30T04:14:27.151Z,9.00
2018-07-30T04:16:55.971Z,9.17
2018-07-30T04:19:24.754Z,9.30
2018-07-30T04:21:56.046Z,8.63
2018-07-30T04:24:24.816Z,8.63
2018-07-30T04:26:53.615Z,9.37
2018-07-30T04:29:22.405Z,9.33
2018-07-30T04:31:51.175Z,9.13
2018-07-30T04:34:19.988Z,10.10
2018-07-30T04:36:48.738Z,9.70
2018-07-30T04:39:17.523Z,9.37
2018-07-30T04:41:46.318Z,10.07
2018-07-30T04:44:15.083Z,9.20
2018-07-30T04:46:43.879Z,10.13
2018-07-30T04:49:12.732Z,10.13
2018-07-30T04:51:41.535Z,10.40
2018-07-30T04:54:10.333Z,10.50
2018-07-30T04:56:39.134Z,9.67
2018-07-30T04:59:07.927Z,10.10
2018-07-30T05:01:36.730Z,10.47
2018-07-30T05:04:05.649Z,9.60
2018-07-30T05:06:34.494Z,10.30
2018-07-30T05:09:03.434Z,9.33
2018-07-30T05:11:32.230Z,8.73
2018-07-30T05:14:01.046Z,8.47
2018-07-30T05:16:29.849Z,9.03
2018-07-30T05:18:58.630Z,8.20
2018-07-30T05:21:27.419Z,8.50
2018-07-30T05:23:56.203Z,8.40
2018-07-30T05:26:25.037Z,8.80
2018-07-30T05:28:53.854Z,9.13
2018-07-30T05:31:22.662Z,8.87
2018-07-30T05:33:51.065Z,8.93
2018-07-30T05:36:19.826Z,9.43
2018-07-30T05:38:48.614Z,9.03
2018-07-30T05:41:17.419Z,7.97
2018-07-30T05:43:46.214Z,8.07
2018-07-30T05:46:15.037Z,8.20
2018-07-30T05:48:43.813Z,7.87
2018-07-30T05:51:12.575Z,8.10
2018-07-30T05:53:41.346Z,8.70
2018-07-30T05:56:10.258Z,7.67
2018-07-30T05:58:39.083Z,8.13
2018-07-30T06:01:08.540Z,8.47
2018-07-30T06:03:37.319Z,8.30
2018-07-30T06:06:06.663Z,7.63
2018-07-30T06:08:35.462Z,7.53
2018-07-30T06:11:04.367Z,8.10
2018-07-30T06:13:33.157Z,7.67
2018-07-30T06:16:01.928Z,7.27
2018-07-30T06:18:30.726Z,7.97
2018-07-30T06:20:59.552Z,8.25
2018-07-30T06:23:28.331Z,7.85
2018-07-30T06:25:57.090Z,7.70
2018-07-30T06:28:25.886Z,7.87
2018-07-30T06:30:54.979Z,8.43
2018-07-30T06:33:23.739Z,6.78
2018-07-30T06:35:52.497Z,8.80
2018-07-30T06:38:21.292Z,7.42
2018-07-30T06:40:50.088Z,7.05
2018-07-30T06:43:18.813Z,6.08
2018-07-30T06:45:47.602Z,6.20
2018-07-30T06:48:16.378Z,6.27
2018-07-30T06:50:45.210Z,6.58
2018-07-30T06:53:14.039Z,6.03
2018-07-30T06:55:42.841Z,5.97
2018-07-30T06:58:11.975Z,6.37
2018-07-30T07:33:55.084Z,3.13
2018-07-30T07:36:24.055Z,3.63
2018-07-30T07:38:52.975Z,3.60
2018-07-30T07:41:21.863Z,4.23
2018-07-30T10:18:29.686Z,2.43
2018-07-30T10:20:58.517Z,3.10
2018-07-30T10:23:27.355Z,2.30
2018-07-30T10:25:56.138Z,2.37
2018-07-30T10:28:24.898Z,2.57
2018-07-30T10:30:53.691Z,3.17
2018-07-30T10:33:22.506Z,2.60
2018-07-30T10:35:51.283Z,2.23
2018-07-30T10:38:20.146Z,2.10
2018-07-30T10:40:48.914Z,2.00
2018-07-30T10:43:17.830Z,3.07
2018-07-30T10:45:46.690Z,2.30
2018-07-30T10:48:15.510Z,2.30
2018-07-30T10:50:44.320Z,2.53
2018-07-30T10:53:13.094Z,3.00
2018-07-30T10:55:41.926Z,5.07
2018-07-30T10:58:11.086Z,3.00
2018-07-30T11:00:39.896Z,2.40
2018-07-30T11:03:08.731Z,3.03
2018-07-30T11:05:37.542Z,3.10
2018-07-30T11:08:06.311Z,2.57
2018-07-30T11:10:35.147Z,2.73
2018-07-30T11:13:04.306Z,2.60
2018-07-30T11:15:33.099Z,2.57
2018-07-30T11:18:01.938Z,2.40
2018-07-30T11:20:30.698Z,2.10
2018-07-30T11:22:59.493Z,1.90
2018-07-30T11:25:27.947Z,4.27
2018-07-30T11:27:56.767Z,1.63
2018-07-30T11:30:25.566Z,2.10
2018-07-30T11:32:54.341Z,2.03
2018-07-30T11:35:23.086Z,2.80
2018-07-30T11:37:51.926Z,2.13
2018-07-30T11:40:20.714Z,2.67
2018-07-30T11:42:49.547Z,2.60
2018-07-30T11:45:18.282Z,2.50
2018-07-30T11:47:47.051Z,2.17
2018-07-30T11:50:15.799Z,2.60
2018-07-30T11:52:44.566Z,2.13
2018-07-30T11:55:13.343Z,2.20
2018-07-30T11:57:42.408Z,2.13
2018-07-30T12:00:11.223Z,2.00
2018-07-30T12:02:40.247Z,2.00
2018-07-30T12:05:09.029Z,2.07
2018-07-30T12:07:37.850Z,2.50
2018-07-30T12:10:06.718Z,2.13
2018-07-30T12:12:35.474Z,2.97
2018-07-30T12:15:04.339Z,2.87
2018-07-30T12:17:32.738Z,2.27
2018-07-30T12:20:01.550Z,2.80
2018-07-30T12:22:30.382Z,2.33
2018-07-30T12:24:59.557Z,2.30
2018-07-30T12:27:28.377Z,1.93
2018-07-30T12:29:57.179Z,2.40
2018-07-30T12:32:25.943Z,2.20
2018-07-30T12:34:55.306Z,2.33
2018-07-30T12:37:24.083Z,2.37
2018-07-30T12:39:52.951Z,2.55
2018-07-30T12:42:21.710Z,2.45
2018-07-30T12:44:50.489Z,2.67
2018-07-30T12:47:19.348Z,2.50
2018-07-30T12:49:48.442Z,2.55
2018-07-30T12:52:17.242Z,2.20
2018-07-30T12:54:46.022Z,2.05
2018-07-30T12:57:14.818Z,1.67
2018-07-30T12:59:44.090Z,2.30
2018-07-30T13:02:12.871Z,2.15
2018-07-30T13:04:41.638Z,2.37
2018-07-30T13:07:10.702Z,2.40
2018-07-30T13:09:39.474Z,1.98
2018-07-30T13:12:08.306Z,2.27
2018-07-30T13:14:37.090Z,1.80
2018-07-30T13:17:05.869Z,2.02
2018-07-30T13:19:34.670Z,1.60
2018-07-30T13:22:03.430Z,1.82
2018-07-30T13:24:32.214Z,2.40
2018-07-30T13:27:01.011Z,2.05
2018-07-30T13:29:30.102Z,2.40
2018-07-30T13:31:58.892Z,2.40
2018-07-30T13:34:27.658Z,1.80
2018-07-30T13:36:56.414Z,1.82
2018-07-30T13:39:25.200Z,2.25
2018-07-30T13:41:54.006Z,2.10
2018-07-30T13:44:22.797Z,1.80
2018-07-30T13:46:51.610Z,2.00
2018-07-30T13:49:20.380Z,2.10
2018-07-30T13:51:49.147Z,2.37
2018-07-30T13:54:18.032Z,1.82
2018-07-30T13:56:46.757Z,1.60
2018-07-30T13:59:15.532Z,1.90
2018-07-30T14:01:44.289Z,2.37
2018-07-30T14:04:13.062Z,2.00
2018-07-30T14:06:41.909Z,2.35
2018-07-30T14:09:11.874Z,2.22
2018-07-30T14:11:40.694Z,2.45
2018-07-30T14:14:10.259Z,2.25
2018-07-30T14:16:39.718Z,2.80
2018-07-30T14:19:08.502Z,2.47
2018-07-30T14:21:37.343Z,2.35
2018-07-30T14:24:06.591Z,2.10
2018-07-30T14:26:35.557Z,1.77
2018-07-30T14:29:04.364Z,1.72
2018-07-30T14:31:33.162Z,1.80
2018-07-30T14:34:01.512Z,1.67
2018-07-30T14:36:30.294Z,1.82
2018-07-30T14:38:59.059Z,1.87
2018-07-30T14:41:27.858Z,1.62
2018-07-30T14:43:56.610Z,1.95
2018-07-30T14:46:25.410Z,2.02
2018-07-30T14:48:54.251Z,2.00
2018-07-30T14:51:23.013Z,1.70
2018-07-30T14:53:51.830Z,2.00
2018-07-30T14:56:20.610Z,1.92
2018-07-30T14:58:49.698Z,2.02
2018-07-30T15:01:18.546Z,2.42
2018-07-30T15:03:47.302Z,1.87
2018-07-30T15:06:16.141Z,1.65
2018-07-30T15:08:45.420Z,2.17
2018-07-30T15:11:14.387Z,2.00
2018-07-30T15:13:43.174Z,1.70
2018-07-30T15:16:11.982Z,2.37
2018-07-30T15:18:40.834Z,2.58
2018-07-30T15:21:09.650Z,2.37
2018-07-30T15:23:38.451Z,2.17
2018-07-30T15:26:07.228Z,2.15
2018-07-30T15:28:35.982Z,1.90
2018-07-30T15:31:04.791Z,2.10
2018-07-30T15:33:33.866Z,2.58
2018-07-30T15:36:02.658Z,2.00
2018-07-30T15:38:31.446Z,1.67
2018-07-30T15:41:00.206Z,1.80
2018-07-30T15:43:28.966Z,1.77
2018-07-30T15:45:57.739Z,1.75
2018-07-30T15:48:26.506Z,1.70
2018-07-30T15:50:55.322Z,1.75
2018-07-30T15:53:24.086Z,1.50
2018-07-30T15:55:52.895Z,1.40
2018-07-30T15:58:21.694Z,1.87
2018-07-30T16:00:50.475Z,1.80
2018-07-30T16:03:19.270Z,1.77
2018-07-30T16:05:48.101Z,1.95
2018-07-30T16:08:16.874Z,1.80
2018-07-30T16:10:46.014Z,1.62
2018-07-30T16:13:14.798Z,1.82
2018-07-30T16:15:43.693Z,2.02
2018-07-30T16:18:12.462Z,1.98
2018-07-30T16:20:41.229Z,1.70
2018-07-30T16:23:10.053Z,1.55
2018-07-30T16:25:38.818Z,1.87
2018-07-30T16:28:07.656Z,1.60
2018-07-30T16:30:36.482Z,1.85
2018-07-30T16:33:05.357Z,1.92
2018-07-30T16:35:34.485Z,1.77
2018-07-30T16:38:03.345Z,1.70
2018-07-30T16:40:32.118Z,2.00
2018-07-30T16:43:01.226Z,2.15
2018-07-30T16:45:30.088Z,1.70
2018-07-30T16:47:59.164Z,2.12
2018-07-30T16:50:27.962Z,2.35
2018-07-30T16:52:56.732Z,2.10
2018-07-30T16:55:25.505Z,2.40
2018-07-30T16:57:54.265Z,2.05
2018-07-30T17:00:23.071Z,2.20
2018-07-30T17:02:51.883Z,2.72
2018-07-30T17:05:20.689Z,2.35
2018-07-30T17:07:49.503Z,1.82
2018-07-30T17:10:18.274Z,2.42
2018-07-30T17:12:47.297Z,2.55
2018-07-30T17:15:16.066Z,2.20
2018-07-30T17:17:44.842Z,1.75
2018-07-30T17:20:14.378Z,3.08
2018-07-30T17:22:43.826Z,2.30
2018-07-30T17:25:12.616Z,2.15
2018-07-30T17:27:41.391Z,1.57
2018-07-30T17:30:10.518Z,1.72
2018-07-30T17:32:39.286Z,1.80
2018-07-30T17:35:08.078Z,2.83
2018-07-30T17:37:37.069Z,2.10
2018-07-30T17:40:07.121Z,2.15
2018-07-30T17:42:35.525Z,2.30
2018-07-30T17:45:04.714Z,2.27
2018-07-30T17:47:33.474Z,2.12
2018-07-30T17:50:02.246Z,2.80
2018-07-30T17:52:30.997Z,2.30
2018-07-30T17:55:00.103Z,2.60
2018-07-30T17:57:29.138Z,3.67
2018-07-30T17:59:57.938Z,3.40
2018-07-30T18:02:26.977Z,3.25
2018-07-30T18:04:56.015Z,3.40
2018-07-30T18:07:24.815Z,4.80
2018-07-30T18:09:53.586Z,3.10
2018-07-30T18:12:22.741Z,2.75
2018-07-30T18:14:51.497Z,1.83
2018-07-30T18:17:20.286Z,2.37
2018-07-30T18:19:49.154Z,2.43
2018-07-30T18:22:17.974Z,2.20
2018-07-30T18:24:46.768Z,2.30
2018-07-30T18:27:15.762Z,2.20
2018-07-30T18:29:44.591Z,2.12
2018-07-30T18:32:13.395Z,2.30
2018-07-30T18:34:42.166Z,2.37
2018-07-30T18:37:10.937Z,1.93
2018-07-30T18:39:39.723Z,2.20
2018-07-30T18:42:08.536Z,2.83
2018-07-30T18:44:37.334Z,2.57
2018-07-30T18:47:06.094Z,2.37
2018-07-30T18:49:34.866Z,2.43
2018-07-30T18:52:03.986Z,2.30
2018-07-30T18:54:32.810Z,2.47
2018-07-30T18:57:01.614Z,1.97
2018-07-30T18:59:30.426Z,2.50
2018-07-30T19:01:59.213Z,2.27
2018-07-30T19:04:27.998Z,2.37
2018-07-30T19:06:56.742Z,2.57
2018-07-30T19:09:25.522Z,2.17
2018-07-30T19:11:54.322Z,2.27
2018-07-30T19:14:23.078Z,2.37
2018-07-30T19:16:53.569Z,2.30
2018-07-30T19:19:23.071Z,2.80
2018-07-30T19:21:52.098Z,2.17
2018-07-30T19:24:21.358Z,2.50
2018-07-30T19:26:50.185Z,2.13
2018-07-30T19:29:18.986Z,2.97
2018-07-30T19:31:47.786Z,2.27
2018-07-30T19:34:16.545Z,2.63
2018-07-30T19:36:45.590Z,3.07
2018-07-30T19:39:14.695Z,2.40
2018-07-30T19:41:43.476Z,2.93
2018-07-30T19:44:12.668Z,2.80
2018-07-30T19:46:41.670Z,2.83
2018-07-30T19:49:10.438Z,3.00
2018-07-30T19:51:39.240Z,3.03
2018-07-30T19:54:08.123Z,3.10
2018-07-30T19:56:36.874Z,3.10
2018-07-30T19:59:06.591Z,2.53
2018-07-30T20:01:35.452Z,3.00
2018-07-30T20:04:04.717Z,3.10
2018-07-30T20:06:33.718Z,3.27
2018-07-30T20:09:02.522Z,3.20
2018-07-30T20:11:31.273Z,3.27
2018-07-30T20:14:00.378Z,3.20
2018-07-30T20:16:29.134Z,3.00
2018-07-30T20:18:58.221Z,3.20
2018-07-30T20:21:26.987Z,4.27
2018-07-30T20:23:55.790Z,3.90
2018-07-30T20:26:24.612Z,4.07
2018-07-30T20:28:53.370Z,4.33
2018-07-30T20:31:24.138Z,5.97
2018-07-30T20:33:54.290Z,4.40
2018-07-30T20:36:23.866Z,4.77
2018-07-30T20:38:53.477Z,5.40
2018-07-30T20:41:22.867Z,4.87
2018-07-30T20:43:52.268Z,4.83
2018-07-30T20:46:21.086Z,5.60
2018-07-30T20:48:49.897Z,5.30
2018-07-30T20:51:18.315Z,5.67
2018-07-30T20:53:47.099Z,5.33
2018-07-30T20:56:16.207Z,5.20
2018-07-30T20:58:45.304Z,5.20
2018-07-30T21:01:14.402Z,5.27
2018-07-30T21:03:43.496Z,5.13
2018-07-30T21:06:12.262Z,5.33
2018-07-30T21:08:41.346Z,5.50
2018-07-30T21:11:10.145Z,5.30
2018-07-30T21:13:38.938Z,5.77
2018-07-30T21:16:07.719Z,5.73
2018-07-30T21:18:36.789Z,4.83
2018-07-30T21:21:05.545Z,5.50
2018-07-30T21:23:34.443Z,4.83
2018-07-30T21:26:03.206Z,5.10
2018-07-30T21:28:31.953Z,5.30
2018-07-30T21:31:00.730Z,4.80
2018-07-30T21:33:29.506Z,5.30
2018-07-30T21:35:58.263Z,4.80
2018-07-30T21:38:27.123Z,5.07
2018-07-30T21:40:55.931Z,4.60
2018-07-30T21:43:24.702Z,4.87
2018-07-30T21:45:53.901Z,4.90
2018-07-30T21:48:22.645Z,5.30
2018-07-30T21:50:51.448Z,5.10
2018-07-30T21:53:20.225Z,5.47
2018-07-30T21:55:48.990Z,4.60
2018-07-30T21:58:17.764Z,4.80
2018-07-30T22:00:58.946Z,4.83
2018-07-30T22:03:27.881Z,4.53
2018-07-30T22:06:01.907Z,4.30
2018-07-30T22:08:30.695Z,4.80
2018-07-30T22:10:59.498Z,4.73
2018-07-30T22:13:28.370Z,4.63
2018-07-30T22:15:57.174Z,4.77
2018-07-30T22:18:25.974Z,3.97
2018-07-30T22:20:55.050Z,4.83
2018-07-30T22:23:23.838Z,3.93
2018-07-30T22:25:52.602Z,4.17
2018-07-30T22:28:21.369Z,4.07
2018-07-30T22:30:50.175Z,3.87
2018-07-30T22:33:18.928Z,4.30
2018-07-30T22:35:47.754Z,3.90
2018-07-30T22:38:16.525Z,4.17
2018-07-30T22:40:45.321Z,4.10
2018-07-30T22:43:14.158Z,4.00
2018-07-30T22:45:42.926Z,4.13
2018-07-30T22:48:11.674Z,4.03
2018-07-30T22:50:40.530Z,4.10
2018-07-30T22:53:09.305Z,4.00
2018-07-30T22:55:41.034Z,4.10
2018-07-30T22:58:09.865Z,4.23
2018-07-30T23:00:38.612Z,4.40
2018-07-30T23:03:07.505Z,4.07
2018-07-30T23:05:36.303Z,3.90
2018-07-30T23:08:05.086Z,4.40
2018-07-30T23:10:33.866Z,4.17
2018-07-30T23:13:02.617Z,4.30
2018-07-30T23:15:31.387Z,4.17
2018-07-30T23:18:00.262Z,4.40
2018-07-30T23:20:29.118Z,4.60
2018-07-30T23:22:57.884Z,4.37
2018-07-30T23:25:26.698Z,5.00
2018-07-30T23:27:55.466Z,4.90
2018-07-30T23:30:24.238Z,4.20
2018-07-30T23:32:52.990Z,5.30
2018-07-30T23:35:21.838Z,4.83
2018-07-30T23:37:50.881Z,4.87
2018-07-30T23:40:19.653Z,5.20
2018-07-30T23:42:48.765Z,5.40
2018-07-30T23:45:17.537Z,5.20
2018-07-30T23:47:46.289Z,5.30
2018-07-30T23:50:15.043Z,5.10
2018-07-30T23:52:43.834Z,5.23
2018-07-30T23:55:12.622Z,5.60
2018-07-30T23:57:41.390Z,5.70
